sensor_id;sensor_type;location;lat;lon;timestamp;temperature;humidity
42147;DHT22;27815;43.410;11.852;2024-03-08T00:02:36;6.20;74.60
42147;DHT22;27815;43.410;11.852;2024-03-08T00:06:39;6.20;74.60
42147;DHT22;27815;43.410;11.852;2024-03-08T00:10:43;6.30;74.50
42147;DHT22;27815;43.410;11.852;2024-03-08T00:14:46;6.30;74.60
42147;DHT22;27815;43.410;11.852;2024-03-08T00:18:49;6.20;74.50
42147;DHT22;27815;43.410;11.852;2024-03-08T00:22:52;6.20;74.60
42147;DHT22;27815;43.410;11.852;2024-03-08T00:26:55;6.30;74.60
42147;DHT22;27815;43.410;11.852;2024-03-08T00:30:58;6.30;74.80
42147;DHT22;27815;43.410;11.852;2024-03-08T00:35:01;6.40;74.80
42147;DHT22;27815;43.410;11.852;2024-03-08T00:39:05;6.50;74.90
42147;DHT22;27815;43.410;11.852;2024-03-08T00:43:10;6.50;74.80
42147;DHT22;27815;43.410;11.852;2024-03-08T00:47:13;6.50;74.90
42147;DHT22;27815;43.410;11.852;2024-03-08T00:51:17;6.50;74.90
42147;DHT22;27815;43.410;11.852;2024-03-08T00:55:21;6.40;74.90
42147;DHT22;27815;43.410;11.852;2024-03-08T00:59:24;6.20;75.10
42147;DHT22;27815;43.410;11.852;2024-03-08T01:03:28;6.20;75.20
42147;DHT22;27815;43.410;11.852;2024-03-08T01:07:31;6.10;75.20
42147;DHT22;27815;43.410;11.852;2024-03-08T01:11:34;6.10;75.20
42147;DHT22;27815;43.410;11.852;2024-03-08T01:15:37;6.00;75.20
42147;DHT22;27815;43.410;11.852;2024-03-08T01:19:44;5.90;75.20
42147;DHT22;27815;43.410;11.852;2024-03-08T01:23:51;5.90;75.20
42147;DHT22;27815;43.410;11.852;2024-03-08T01:27:54;5.90;75.40
42147;DHT22;27815;43.410;11.852;2024-03-08T01:31:57;5.90;75.40
42147;DHT22;27815;43.410;11.852;2024-03-08T01:36:00;5.90;75.40
42147;DHT22;27815;43.410;11.852;2024-03-08T01:40:04;6.00;75.50
42147;DHT22;27815;43.410;11.852;2024-03-08T01:44:07;5.90;75.60
42147;DHT22;27815;43.410;11.852;2024-03-08T01:48:12;5.90;75.50
42147;DHT22;27815;43.410;11.852;2024-03-08T01:52:16;5.90;75.50
42147;DHT22;27815;43.410;11.852;2024-03-08T01:56:21;5.80;75.50
42147;DHT22;27815;43.410;11.852;2024-03-08T02:00:24;5.80;75.60
42147;DHT22;27815;43.410;11.852;2024-03-08T02:04:29;5.70;75.60
42147;DHT22;27815;43.410;11.852;2024-03-08T02:08:33;5.60;75.60
42147;DHT22;27815;43.410;11.852;2024-03-08T02:12:37;5.60;75.50
42147;DHT22;27815;43.410;11.852;2024-03-08T02:16:41;5.50;75.60
42147;DHT22;27815;43.410;11.852;2024-03-08T02:20:45;5.40;75.70
42147;DHT22;27815;43.410;11.852;2024-03-08T02:24:50;5.30;75.60
42147;DHT22;27815;43.410;11.852;2024-03-08T02:28:53;5.20;75.80
42147;DHT22;27815;43.410;11.852;2024-03-08T02:32:56;5.30;75.90
42147;DHT22;27815;43.410;11.852;2024-03-08T02:37:00;5.20;75.80
42147;DHT22;27815;43.410;11.852;2024-03-08T02:41:03;5.10;75.70
42147;DHT22;27815;43.410;11.852;2024-03-08T02:45:07;5.00;75.70
42147;DHT22;27815;43.410;11.852;2024-03-08T02:49:12;5.00;75.80
42147;DHT22;27815;43.410;11.852;2024-03-08T02:53:15;4.90;75.90
42147;DHT22;27815;43.410;11.852;2024-03-08T02:57:18;4.90;76.10
42147;DHT22;27815;43.410;11.852;2024-03-08T03:01:21;4.90;76.00
42147;DHT22;27815;43.410;11.852;2024-03-08T03:05:25;4.80;76.10
42147;DHT22;27815;43.410;11.852;2024-03-08T03:09:28;4.80;76.10
42147;DHT22;27815;43.410;11.852;2024-03-08T03:13:31;4.80;76.10
42147;DHT22;27815;43.410;11.852;2024-03-08T03:17:33;4.80;76.20
42147;DHT22;27815;43.410;11.852;2024-03-08T03:21:37;4.80;76.30
42147;DHT22;27815;43.410;11.852;2024-03-08T03:25:40;4.80;76.30
42147;DHT22;27815;43.410;11.852;2024-03-08T03:29:44;4.70;76.20
42147;DHT22;27815;43.410;11.852;2024-03-08T03:33:52;4.70;76.10
42147;DHT22;27815;43.410;11.852;2024-03-08T03:37:55;4.60;76.20
42147;DHT22;27815;43.410;11.852;2024-03-08T03:42:05;4.60;76.30
42147;DHT22;27815;43.410;11.852;2024-03-08T03:46:08;4.50;76.20
42147;DHT22;27815;43.410;11.852;2024-03-08T03:50:13;4.50;76.20
42147;DHT22;27815;43.410;11.852;2024-03-08T03:54:16;4.40;76.20
42147;DHT22;27815;43.410;11.852;2024-03-08T03:58:19;4.40;76.20
42147;DHT22;27815;43.410;11.852;2024-03-08T04:02:25;4.40;76.30
42147;DHT22;27815;43.410;11.852;2024-03-08T04:06:29;4.30;76.30
42147;DHT22;27815;43.410;11.852;2024-03-08T04:10:32;4.30;76.30
42147;DHT22;27815;43.410;11.852;2024-03-08T04:14:35;4.20;76.30
42147;DHT22;27815;43.410;11.852;2024-03-08T04:18:39;4.20;76.40
42147;DHT22;27815;43.410;11.852;2024-03-08T04:22:42;4.20;76.40
42147;DHT22;27815;43.410;11.852;2024-03-08T04:26:47;4.20;76.30
42147;DHT22;27815;43.410;11.852;2024-03-08T04:30:50;4.10;76.30
42147;DHT22;27815;43.410;11.852;2024-03-08T04:34:53;4.10;76.30
42147;DHT22;27815;43.410;11.852;2024-03-08T04:38:56;4.20;76.20
42147;DHT22;27815;43.410;11.852;2024-03-08T04:42:59;4.20;76.10
42147;DHT22;27815;43.410;11.852;2024-03-08T04:47:02;4.10;76.10
42147;DHT22;27815;43.410;11.852;2024-03-08T04:51:05;4.10;76.10
42147;DHT22;27815;43.410;11.852;2024-03-08T04:55:08;4.20;76.10
42147;DHT22;27815;43.410;11.852;2024-03-08T04:59:12;4.30;76.20
42147;DHT22;27815;43.410;11.852;2024-03-08T05:03:15;4.30;76.20
42147;DHT22;27815;43.410;11.852;2024-03-08T05:07:18;4.30;76.20
42147;DHT22;27815;43.410;11.852;2024-03-08T05:11:22;4.30;76.40
42147;DHT22;27815;43.410;11.852;2024-03-08T05:15:24;4.40;76.40
42147;DHT22;27815;43.410;11.852;2024-03-08T05:19:27;4.50;76.30
42147;DHT22;27815;43.410;11.852;2024-03-08T05:23:36;4.50;76.20
42147;DHT22;27815;43.410;11.852;2024-03-08T05:27:41;4.60;76.20
42147;DHT22;27815;43.410;11.852;2024-03-08T05:31:48;4.60;76.20
42147;DHT22;27815;43.410;11.852;2024-03-08T05:35:51;4.70;76.20
42147;DHT22;27815;43.410;11.852;2024-03-08T05:39:54;4.80;76.20
42147;DHT22;27815;43.410;11.852;2024-03-08T05:43:57;4.90;76.20
42147;DHT22;27815;43.410;11.852;2024-03-08T05:48:00;5.00;76.20
42147;DHT22;27815;43.410;11.852;2024-03-08T05:52:04;5.00;76.30
42147;DHT22;27815;43.410;11.852;2024-03-08T05:56:07;5.00;76.50
42147;DHT22;27815;43.410;11.852;2024-03-08T06:00:12;5.00;76.60
42147;DHT22;27815;43.410;11.852;2024-03-08T06:04:15;5.00;76.60
42147;DHT22;27815;43.410;11.852;2024-03-08T06:08:20;5.10;76.50
42147;DHT22;27815;43.410;11.852;2024-03-08T06:12:23;5.20;76.40
42147;DHT22;27815;43.410;11.852;2024-03-08T06:16:31;5.30;76.30
42147;DHT22;27815;43.410;11.852;2024-03-08T06:20:36;5.40;76.30
42147;DHT22;27815;43.410;11.852;2024-03-08T06:24:39;5.50;76.30
42147;DHT22;27815;43.410;11.852;2024-03-08T06:28:42;5.50;76.30
42147;DHT22;27815;43.410;11.852;2024-03-08T06:32:45;5.60;76.30
42147;DHT22;27815;43.410;11.852;2024-03-08T06:36:48;5.60;76.30
42147;DHT22;27815;43.410;11.852;2024-03-08T06:40:52;5.60;76.30
42147;DHT22;27815;43.410;11.852;2024-03-08T06:44:58;5.50;76.50
42147;DHT22;27815;43.410;11.852;2024-03-08T06:49:08;5.40;76.70
42147;DHT22;27815;43.410;11.852;2024-03-08T06:53:15;5.30;76.80
42147;DHT22;27815;43.410;11.852;2024-03-08T06:57:25;5.30;76.90
42147;DHT22;27815;43.410;11.852;2024-03-08T07:01:32;5.40;77.00
42147;DHT22;27815;43.410;11.852;2024-03-08T07:05:37;5.50;76.90
42147;DHT22;27815;43.410;11.852;2024-03-08T07:09:39;5.50;76.80
42147;DHT22;27815;43.410;11.852;2024-03-08T07:13:45;5.50;77.00
42147;DHT22;27815;43.410;11.852;2024-03-08T07:17:49;5.50;77.00
42147;DHT22;27815;43.410;11.852;2024-03-08T07:21:55;5.50;77.10
42147;DHT22;27815;43.410;11.852;2024-03-08T07:26:00;5.60;77.10
42147;DHT22;27815;43.410;11.852;2024-03-08T07:30:04;5.70;77.00
42147;DHT22;27815;43.410;11.852;2024-03-08T07:34:11;5.90;76.90
42147;DHT22;27815;43.410;11.852;2024-03-08T07:38:14;5.80;76.80
42147;DHT22;27815;43.410;11.852;2024-03-08T07:42:17;5.90;77.00
42147;DHT22;27815;43.410;11.852;2024-03-08T07:46:20;6.00;76.80
42147;DHT22;27815;43.410;11.852;2024-03-08T07:50:23;5.90;76.90
42147;DHT22;27815;43.410;11.852;2024-03-08T07:54:26;5.90;77.10
42147;DHT22;27815;43.410;11.852;2024-03-08T07:58:29;6.00;77.00
42147;DHT22;27815;43.410;11.852;2024-03-08T08:02:33;6.00;76.80
42147;DHT22;27815;43.410;11.852;2024-03-08T08:06:40;6.00;76.80
42147;DHT22;27815;43.410;11.852;2024-03-08T08:10:44;6.00;77.00
42147;DHT22;27815;43.410;11.852;2024-03-08T08:14:47;6.20;76.90
42147;DHT22;27815;43.410;11.852;2024-03-08T08:18:50;6.30;76.80
42147;DHT22;27815;43.410;11.852;2024-03-08T08:22:53;6.40;76.70
42147;DHT22;27815;43.410;11.852;2024-03-08T08:26:57;6.50;76.70
42147;DHT22;27815;43.410;11.852;2024-03-08T08:31:00;6.50;76.60
42147;DHT22;27815;43.410;11.852;2024-03-08T08:35:04;6.50;76.80
42147;DHT22;27815;43.410;11.852;2024-03-08T08:39:07;6.60;76.80
42147;DHT22;27815;43.410;11.852;2024-03-08T08:43:16;6.70;76.70
42147;DHT22;27815;43.410;11.852;2024-03-08T08:47:20;6.70;76.80
42147;DHT22;27815;43.410;11.852;2024-03-08T08:51:23;6.80;76.70
42147;DHT22;27815;43.410;11.852;2024-03-08T08:55:25;6.80;76.90
42147;DHT22;27815;43.410;11.852;2024-03-08T08:59:29;7.00;77.00
42147;DHT22;27815;43.410;11.852;2024-03-08T09:03:33;7.00;76.80
42147;DHT22;27815;43.410;11.852;2024-03-08T09:07:37;7.20;76.80
42147;DHT22;27815;43.410;11.852;2024-03-08T09:11:40;7.30;76.70
42147;DHT22;27815;43.410;11.852;2024-03-08T09:15:44;7.30;76.60
42147;DHT22;27815;43.410;11.852;2024-03-08T09:19:48;7.40;76.70
42147;DHT22;27815;43.410;11.852;2024-03-08T09:23:51;7.50;76.50
42147;DHT22;27815;43.410;11.852;2024-03-08T09:27:54;7.60;76.30
42147;DHT22;27815;43.410;11.852;2024-03-08T09:31:57;7.80;76.40
42147;DHT22;27815;43.410;11.852;2024-03-08T09:36:00;8.00;76.30
42147;DHT22;27815;43.410;11.852;2024-03-08T09:40:05;8.10;76.10
42147;DHT22;27815;43.410;11.852;2024-03-08T09:44:13;8.20;76.00
42147;DHT22;27815;43.410;11.852;2024-03-08T09:48:17;8.20;76.00
42147;DHT22;27815;43.410;11.852;2024-03-08T09:52:24;8.30;76.00
42147;DHT22;27815;43.410;11.852;2024-03-08T09:56:27;8.50;76.10
42147;DHT22;27815;43.410;11.852;2024-03-08T10:00:31;8.60;75.90
42147;DHT22;27815;43.410;11.852;2024-03-08T10:04:34;8.90;75.90
42147;DHT22;27815;43.410;11.852;2024-03-08T10:08:36;9.00;75.80
42147;DHT22;27815;43.410;11.852;2024-03-08T10:12:42;9.20;75.90
42147;DHT22;27815;43.410;11.852;2024-03-08T10:16:59;9.50;76.00
42147;DHT22;27815;43.410;11.852;2024-03-08T10:21:08;9.80;75.70
42147;DHT22;27815;43.410;11.852;2024-03-08T10:25:27;10.10;75.80
42147;DHT22;27815;43.410;11.852;2024-03-08T10:29:33;10.40;75.50
42147;DHT22;27815;43.410;11.852;2024-03-08T10:33:38;10.40;75.30
42147;DHT22;27815;43.410;11.852;2024-03-08T10:37:54;10.50;75.40
42147;DHT22;27815;43.410;11.852;2024-03-08T10:42:14;10.70;75.50
42147;DHT22;27815;43.410;11.852;2024-03-08T10:46:35;11.10;75.20
42147;DHT22;27815;43.410;11.852;2024-03-08T10:50:47;11.30;74.90
42147;DHT22;27815;43.410;11.852;2024-03-08T10:54:56;11.50;74.90
42147;DHT22;27815;43.410;11.852;2024-03-08T10:59:03;12.00;74.40
42147;DHT22;27815;43.410;11.852;2024-03-08T11:07:52;12.50;73.60
42147;DHT22;27815;43.410;11.852;2024-03-08T11:16:38;13.20;72.40
42147;DHT22;27815;43.410;11.852;2024-03-08T11:20:48;13.50;72.30
42147;DHT22;27815;43.410;11.852;2024-03-08T11:25:08;14.00;71.40
42147;DHT22;27815;43.410;11.852;2024-03-08T11:33:40;14.60;67.20
42147;DHT22;27815;43.410;11.852;2024-03-08T11:37:49;14.90;66.00
42147;DHT22;27815;43.410;11.852;2024-03-08T11:41:57;15.10;64.60
42147;DHT22;27815;43.410;11.852;2024-03-08T11:46:10;15.40;63.50
42147;DHT22;27815;43.410;11.852;2024-03-08T11:50:15;15.50;62.20
42147;DHT22;27815;43.410;11.852;2024-03-08T11:54:24;15.60;61.00
42147;DHT22;27815;43.410;11.852;2024-03-08T11:58:40;15.70;60.20
42147;DHT22;27815;43.410;11.852;2024-03-08T12:02:46;15.60;59.90
42147;DHT22;27815;43.410;11.852;2024-03-08T12:06:53;15.60;58.60
42147;DHT22;27815;43.410;11.852;2024-03-08T12:11:04;15.50;56.30
42147;DHT22;27815;43.410;11.852;2024-03-08T12:15:15;15.30;55.80
42147;DHT22;27815;43.410;11.852;2024-03-08T12:19:28;15.20;54.80
42147;DHT22;27815;43.410;11.852;2024-03-08T12:23:40;15.20;53.90
42147;DHT22;27815;43.410;11.852;2024-03-08T12:27:44;15.30;54.60
42147;DHT22;27815;43.410;11.852;2024-03-08T12:31:55;15.50;52.20
42147;DHT22;27815;43.410;11.852;2024-03-08T12:36:04;15.50;51.60
42147;DHT22;27815;43.410;11.852;2024-03-08T12:40:10;15.60;52.30
42147;DHT22;27815;43.410;11.852;2024-03-08T12:44:16;15.90;52.40
42147;DHT22;27815;43.410;11.852;2024-03-08T12:48:24;16.00;51.20
42147;DHT22;27815;43.410;11.852;2024-03-08T12:52:30;16.30;51.20
42147;DHT22;27815;43.410;11.852;2024-03-08T12:56:42;16.50;50.60
42147;DHT22;27815;43.410;11.852;2024-03-08T13:00:52;16.50;48.40
42147;DHT22;27815;43.410;11.852;2024-03-08T13:04:59;16.50;49.10
42147;DHT22;27815;43.410;11.852;2024-03-08T13:09:02;16.40;49.50
42147;DHT22;27815;43.410;11.852;2024-03-08T13:13:10;16.40;48.90
42147;DHT22;27815;43.410;11.852;2024-03-08T13:17:27;16.30;48.60
42147;DHT22;27815;43.410;11.852;2024-03-08T13:21:36;16.30;49.00
42147;DHT22;27815;43.410;11.852;2024-03-08T13:25:41;16.30;48.30
42147;DHT22;27815;43.410;11.852;2024-03-08T13:29:45;16.30;48.20
42147;DHT22;27815;43.410;11.852;2024-03-08T13:33:51;16.40;48.40
42147;DHT22;27815;43.410;11.852;2024-03-08T13:38:03;16.50;48.50
42147;DHT22;27815;43.410;11.852;2024-03-08T13:42:16;16.60;49.00
42147;DHT22;27815;43.410;11.852;2024-03-08T13:46:19;16.80;48.60
42147;DHT22;27815;43.410;11.852;2024-03-08T13:50:28;16.80;48.20
42147;DHT22;27815;43.410;11.852;2024-03-08T13:54:34;16.80;48.20
42147;DHT22;27815;43.410;11.852;2024-03-08T13:58:39;16.70;47.00
42147;DHT22;27815;43.410;11.852;2024-03-08T14:02:45;16.70;46.20
42147;DHT22;27815;43.410;11.852;2024-03-08T14:06:50;16.60;46.10
42147;DHT22;27815;43.410;11.852;2024-03-08T14:11:04;16.50;46.20
42147;DHT22;27815;43.410;11.852;2024-03-08T14:15:19;16.30;46.30
42147;DHT22;27815;43.410;11.852;2024-03-08T14:19:25;16.30;45.90
42147;DHT22;27815;43.410;11.852;2024-03-08T14:23:34;16.20;45.90
42147;DHT22;27815;43.410;11.852;2024-03-08T14:27:57;16.10;46.20
42147;DHT22;27815;43.410;11.852;2024-03-08T14:32:05;16.00;46.00
42147;DHT22;27815;43.410;11.852;2024-03-08T14:36:11;15.90;46.80
42147;DHT22;27815;43.410;11.852;2024-03-08T14:40:18;15.80;47.10
42147;DHT22;27815;43.410;11.852;2024-03-08T14:44:27;15.80;47.50
42147;DHT22;27815;43.410;11.852;2024-03-08T14:48:37;15.60;47.20
42147;DHT22;27815;43.410;11.852;2024-03-08T14:52:40;15.50;47.40
42147;DHT22;27815;43.410;11.852;2024-03-08T14:56:55;15.40;47.40
42147;DHT22;27815;43.410;11.852;2024-03-08T15:01:06;15.30;47.80
42147;DHT22;27815;43.410;11.852;2024-03-08T15:05:13;15.30;47.70
42147;DHT22;27815;43.410;11.852;2024-03-08T15:09:19;15.10;47.70
42147;DHT22;27815;43.410;11.852;2024-03-08T15:13:34;15.00;48.10
42147;DHT22;27815;43.410;11.852;2024-03-08T15:17:51;14.90;48.50
42147;DHT22;27815;43.410;11.852;2024-03-08T15:21:59;14.90;48.80
42147;DHT22;27815;43.410;11.852;2024-03-08T15:26:08;14.80;48.70
42147;DHT22;27815;43.410;11.852;2024-03-08T15:30:11;14.70;48.70
42147;DHT22;27815;43.410;11.852;2024-03-08T15:34:34;14.70;48.90
42147;DHT22;27815;43.410;11.852;2024-03-08T15:38:41;14.60;49.30
42147;DHT22;27815;43.410;11.852;2024-03-08T15:42:57;14.60;49.50
42147;DHT22;27815;43.410;11.852;2024-03-08T15:47:05;14.50;49.80
42147;DHT22;27815;43.410;11.852;2024-03-08T15:51:10;14.50;50.20
42147;DHT22;27815;43.410;11.852;2024-03-08T15:55:17;14.50;50.30
42147;DHT22;27815;43.410;11.852;2024-03-08T15:59:27;14.50;50.50
42147;DHT22;27815;43.410;11.852;2024-03-08T16:03:32;14.50;50.40
42147;DHT22;27815;43.410;11.852;2024-03-08T16:07:41;14.50;50.60
42147;DHT22;27815;43.410;11.852;2024-03-08T16:11:53;14.40;50.50
42147;DHT22;27815;43.410;11.852;2024-03-08T16:15:57;14.30;50.70
42147;DHT22;27815;43.410;11.852;2024-03-08T16:20:08;14.30;50.90
42147;DHT22;27815;43.410;11.852;2024-03-08T16:24:17;14.20;51.20
42147;DHT22;27815;43.410;11.852;2024-03-08T16:28:21;14.10;51.30
42147;DHT22;27815;43.410;11.852;2024-03-08T16:32:35;14.10;51.60
42147;DHT22;27815;43.410;11.852;2024-03-08T16:36:39;14.00;51.80
42147;DHT22;27815;43.410;11.852;2024-03-08T16:40:44;14.00;52.00
42147;DHT22;27815;43.410;11.852;2024-03-08T16:44:51;13.90;52.00
42147;DHT22;27815;43.410;11.852;2024-03-08T16:48:56;13.90;52.20
42147;DHT22;27815;43.410;11.852;2024-03-08T16:53:05;13.80;52.30
42147;DHT22;27815;43.410;11.852;2024-03-08T16:57:11;13.80;52.40
42147;DHT22;27815;43.410;11.852;2024-03-08T17:01:19;13.70;52.50
42147;DHT22;27815;43.410;11.852;2024-03-08T17:05:29;13.60;52.20
42147;DHT22;27815;43.410;11.852;2024-03-08T17:09:35;13.60;52.40
42147;DHT22;27815;43.410;11.852;2024-03-08T17:13:40;13.60;52.80
42147;DHT22;27815;43.410;11.852;2024-03-08T17:17:45;13.50;53.50
42147;DHT22;27815;43.410;11.852;2024-03-08T17:21:54;13.40;54.10
42147;DHT22;27815;43.410;11.852;2024-03-08T17:26:00;13.30;54.80
42147;DHT22;27815;43.410;11.852;2024-03-08T17:30:11;13.10;55.40
42147;DHT22;27815;43.410;11.852;2024-03-08T17:34:28;13.00;55.80
42147;DHT22;27815;43.410;11.852;2024-03-08T17:38:38;12.90;56.50
42147;DHT22;27815;43.410;11.852;2024-03-08T17:42:59;12.80;57.10
42147;DHT22;27815;43.410;11.852;2024-03-08T17:47:11;12.60;58.50
42147;DHT22;27815;43.410;11.852;2024-03-08T17:51:16;12.50;59.10
42147;DHT22;27815;43.410;11.852;2024-03-08T17:55:19;12.40;59.90
42147;DHT22;27815;43.410;11.852;2024-03-08T17:59:27;12.20;60.80
42147;DHT22;27815;43.410;11.852;2024-03-08T18:03:32;12.10;61.20
42147;DHT22;27815;43.410;11.852;2024-03-08T18:07:38;12.00;61.80
42147;DHT22;27815;43.410;11.852;2024-03-08T18:11:50;12.00;62.30
42147;DHT22;27815;43.410;11.852;2024-03-08T18:15:59;11.90;62.70
42147;DHT22;27815;43.410;11.852;2024-03-08T18:20:05;11.90;63.20
42147;DHT22;27815;43.410;11.852;2024-03-08T18:24:13;11.80;63.90
42147;DHT22;27815;43.410;11.852;2024-03-08T18:28:19;11.70;64.00
42147;DHT22;27815;43.410;11.852;2024-03-08T18:32:25;11.70;64.00
42147;DHT22;27815;43.410;11.852;2024-03-08T18:36:28;11.70;64.30
42147;DHT22;27815;43.410;11.852;2024-03-08T18:40:39;11.70;64.60
42147;DHT22;27815;43.410;11.852;2024-03-08T18:44:50;11.60;64.60
42147;DHT22;27815;43.410;11.852;2024-03-08T18:49:05;11.70;64.70
42147;DHT22;27815;43.410;11.852;2024-03-08T18:53:11;11.70;64.90
42147;DHT22;27815;43.410;11.852;2024-03-08T18:57:19;11.70;65.00
42147;DHT22;27815;43.410;11.852;2024-03-08T19:01:25;11.70;65.10
42147;DHT22;27815;43.410;11.852;2024-03-08T19:05:37;11.70;65.40
42147;DHT22;27815;43.410;11.852;2024-03-08T19:09:48;11.60;65.50
42147;DHT22;27815;43.410;11.852;2024-03-08T19:13:52;11.60;65.50
42147;DHT22;27815;43.410;11.852;2024-03-08T19:17:57;11.60;65.70
42147;DHT22;27815;43.410;11.852;2024-03-08T19:22:01;11.50;66.00
42147;DHT22;27815;43.410;11.852;2024-03-08T19:26:06;11.50;66.10
42147;DHT22;27815;43.410;11.852;2024-03-08T19:30:17;11.60;66.30
42147;DHT22;27815;43.410;11.852;2024-03-08T19:34:22;11.50;66.40
42147;DHT22;27815;43.410;11.852;2024-03-08T19:38:30;11.50;66.80
42147;DHT22;27815;43.410;11.852;2024-03-08T19:42:37;11.30;67.20
42147;DHT22;27815;43.410;11.852;2024-03-08T19:46:42;11.30;67.30
42147;DHT22;27815;43.410;11.852;2024-03-08T19:50:51;11.30;67.50
42147;DHT22;27815;43.410;11.852;2024-03-08T19:54:58;11.20;67.70
42147;DHT22;27815;43.410;11.852;2024-03-08T19:59:07;11.20;68.10
42147;DHT22;27815;43.410;11.852;2024-03-08T20:03:12;11.20;68.40
42147;DHT22;27815;43.410;11.852;2024-03-08T20:07:26;11.10;68.60
42147;DHT22;27815;43.410;11.852;2024-03-08T20:11:29;11.10;69.00
42147;DHT22;27815;43.410;11.852;2024-03-08T20:15:34;11.10;69.50
42147;DHT22;27815;43.410;11.852;2024-03-08T20:19:46;11.00;70.10
42147;DHT22;27815;43.410;11.852;2024-03-08T20:23:51;11.00;70.10
42147;DHT22;27815;43.410;11.852;2024-03-08T20:27:57;11.00;70.30
42147;DHT22;27815;43.410;11.852;2024-03-08T20:32:07;11.00;70.90
42147;DHT22;27815;43.410;11.852;2024-03-08T20:36:12;10.90;71.20
42147;DHT22;27815;43.410;11.852;2024-03-08T20:40:29;10.80;71.20
42147;DHT22;27815;43.410;11.852;2024-03-08T20:44:40;10.70;71.20
42147;DHT22;27815;43.410;11.852;2024-03-08T20:48:46;10.80;71.20
42147;DHT22;27815;43.410;11.852;2024-03-08T20:52:55;10.70;71.10
42147;DHT22;27815;43.410;11.852;2024-03-08T20:56:58;10.70;71.00
42147;DHT22;27815;43.410;11.852;2024-03-08T21:01:04;10.70;70.90
42147;DHT22;27815;43.410;11.852;2024-03-08T21:05:17;10.70;70.70
42147;DHT22;27815;43.410;11.852;2024-03-08T21:09:23;10.60;70.80
42147;DHT22;27815;43.410;11.852;2024-03-08T21:13:28;10.50;71.00
42147;DHT22;27815;43.410;11.852;2024-03-08T21:17:33;10.50;71.10
42147;DHT22;27815;43.410;11.852;2024-03-08T21:21:41;10.50;71.40
42147;DHT22;27815;43.410;11.852;2024-03-08T21:25:43;10.50;71.80
42147;DHT22;27815;43.410;11.852;2024-03-08T21:29:49;10.50;71.80
42147;DHT22;27815;43.410;11.852;2024-03-08T21:33:54;10.60;71.80
42147;DHT22;27815;43.410;11.852;2024-03-08T21:37:59;10.60;71.60
42147;DHT22;27815;43.410;11.852;2024-03-08T21:42:06;10.70;71.50
42147;DHT22;27815;43.410;11.852;2024-03-08T21:46:15;10.60;71.50
42147;DHT22;27815;43.410;11.852;2024-03-08T21:50:21;10.60;71.70
42147;DHT22;27815;43.410;11.852;2024-03-08T21:54:32;10.50;71.60
42147;DHT22;27815;43.410;11.852;2024-03-08T21:58:45;10.40;72.00
42147;DHT22;27815;43.410;11.852;2024-03-08T22:02:49;10.40;71.90
42147;DHT22;27815;43.410;11.852;2024-03-08T22:06:52;10.40;72.00
42147;DHT22;27815;43.410;11.852;2024-03-08T22:10:59;10.40;72.00
42147;DHT22;27815;43.410;11.852;2024-03-08T22:15:04;10.40;72.00
42147;DHT22;27815;43.410;11.852;2024-03-08T22:19:11;10.40;71.90
42147;DHT22;27815;43.410;11.852;2024-03-08T22:23:21;10.40;71.90
42147;DHT22;27815;43.410;11.852;2024-03-08T22:27:29;10.40;71.80
42147;DHT22;27815;43.410;11.852;2024-03-08T22:31:33;10.40;71.80
42147;DHT22;27815;43.410;11.852;2024-03-08T22:35:45;10.40;71.80
42147;DHT22;27815;43.410;11.852;2024-03-08T22:39:49;10.40;71.90
42147;DHT22;27815;43.410;11.852;2024-03-08T22:43:54;10.50;71.90
42147;DHT22;27815;43.410;11.852;2024-03-08T22:47:58;10.30;72.00
42147;DHT22;27815;43.410;11.852;2024-03-08T22:52:04;10.30;72.00
42147;DHT22;27815;43.410;11.852;2024-03-08T22:56:07;10.30;72.10
42147;DHT22;27815;43.410;11.852;2024-03-08T23:00:11;10.30;72.10
42147;DHT22;27815;43.410;11.852;2024-03-08T23:04:27;10.30;72.20
42147;DHT22;27815;43.410;11.852;2024-03-08T23:08:30;10.30;71.90
42147;DHT22;27815;43.410;11.852;2024-03-08T23:12:33;10.20;72.20
42147;DHT22;27815;43.410;11.852;2024-03-08T23:16:39;10.20;72.40
42147;DHT22;27815;43.410;11.852;2024-03-08T23:20:42;10.10;72.20
42147;DHT22;27815;43.410;11.852;2024-03-08T23:24:45;10.00;72.50
42147;DHT22;27815;43.410;11.852;2024-03-08T23:28:49;10.00;72.70
42147;DHT22;27815;43.410;11.852;2024-03-08T23:32:52;10.10;72.60
42147;DHT22;27815;43.410;11.852;2024-03-08T23:36:56;10.20;72.60
42147;DHT22;27815;43.410;11.852;2024-03-08T23:40:59;10.20;72.80
42147;DHT22;27815;43.410;11.852;2024-03-08T23:45:02;10.30;73.00
42147;DHT22;27815;43.410;11.852;2024-03-08T23:49:05;10.40;72.90
42147;DHT22;27815;43.410;11.852;2024-03-08T23:53:09;10.40;72.80
42147;DHT22;27815;43.410;11.852;2024-03-08T23:57:12;10.50;72.70
